Time;durP1;ratioP1;P1;durP2;ratioP2;P2;SDS_P1;SDS_P2;PMS_P1;PMS_P2;Temp;Humidity;BMP_temperature;BMP_pressure;BME280_temperature;BME280_humidity;BME280_pressure;Samples;Min_cycle;Max_cycle;Signal;HPM_P1;HPM_P2
2023/08/26 00:06:56;;;;;;;21.30;19.10;;;20.60;99.90;;;;;;4595903;30;20770;-86
2023/08/26 00:31:47;;;;;;;22.08;19.88;;;20.60;99.90;;;;;;4535420;30;21281;-84
2023/08/26 01:02:51;;;;;;;27.17;22.88;;;20.70;99.90;;;;;;4743231;29;20199;-83
2023/08/26 01:28:16;;;;;;;18.67;16.70;;;20.40;99.90;;;;;;4747501;29;20317;-85
2023/08/26 01:48:25;;;;;;;13.80;12.40;;;20.00;99.90;;;;;;4652104;30;20244;-83
2023/08/26 02:18:17;;;;;;;15.07;12.53;;;19.70;99.90;;;;;;4651377;30;20691;-84
2023/08/26 02:44:03;;;;;;;18.03;15.50;;;19.60;99.90;;;;;;4551134;30;20506;-80
2023/08/26 03:04:04;;;;;;;19.63;17.63;;;19.30;99.90;;;;;;4563488;30;20220;-80
2023/08/26 03:39:39;;;;;;;23.67;19.47;;;19.00;99.90;;;;;;4831997;28;20463;-84
2023/08/26 04:05:20;;;;;;;23.80;21.13;;;19.10;99.90;;;;;;4759450;29;20215;-82
2023/08/26 04:30:39;;;;;;;28.23;24.00;;;19.30;99.90;;;;;;4567182;30;20773;-84
2023/08/26 05:01:09;;;;;;;29.38;25.30;;;20.00;99.90;;;;;;4680094;29;20221;-85
2023/08/26 05:21:33;;;;;;;19.38;17.50;;;20.60;99.90;;;;;;4562652;30;20240;-79
2023/08/26 05:46:23;;;;;;;13.10;11.90;;;21.60;99.90;;;;;;4515394;30;20436;-83
2023/08/26 06:06:59;;;;;;;14.75;13.27;;;21.90;99.90;;;;;;4594128;30;20262;-84
2023/08/26 06:32:30;;;;;;;13.55;12.15;;;23.20;99.90;;;;;;4671427;30;20207;-84
2023/08/26 06:52:53;;;;;;;13.05;11.50;;;23.90;99.90;;;;;;4723161;29;20801;-82
2023/08/26 07:33:24;;;;;;;14.05;11.85;;;24.90;99.90;;;;;;4881025;28;20240;-85
2023/08/26 07:58:33;;;;;;;11.30;10.10;;;25.60;99.90;;;;;;4749876;29;20373;-85
2023/08/26 08:18:38;;;;;;;11.88;10.68;;;25.90;99.90;;;;;;4646337;30;20782;-85
2023/08/26 08:44:27;;;;;;;9.10;8.30;;;26.30;99.90;;;;;;4640265;30;20309;-84
2023/08/26 09:24:22;;;;;;;6.55;5.68;;;27.40;89.60;;;;;;4636988;29;20563;-81
2023/08/26 09:54:54;;;;;;;3.67;3.35;;;27.60;75.40;;;;;;4852472;29;20888;-87
2023/08/26 10:20:49;;;;;;;8.02;3.58;;;28.60;67.30;;;;;;4789060;29;20459;-85
2023/08/26 11:41:29;;;;;;;4.22;3.63;;;29.40;68.10;;;;;;4623624;30;20202;-83
2023/08/26 12:17:19;;;;;;;4.15;3.53;;;28.50;69.90;;;;;;4774605;29;20318;-86
2023/08/26 12:47:40;;;;;;;3.47;3.17;;;30.20;64.40;;;;;;4826443;29;20202;-85
2023/08/26 13:13:09;;;;;;;3.25;2.95;;;29.90;61.70;;;;;;4766229;29;20217;-84
2023/08/26 13:38:36;;;;;;;4.03;3.60;;;28.90;62.80;;;;;;4623136;30;20237;-85
2023/08/26 14:28:39;;;;;;;5.55;3.95;;;29.60;63.20;;;;;;4499533;30;20548;-84
2023/08/26 14:49:22;;;;;;;4.10;3.80;;;29.40;63.00;;;;;;4666282;29;20238;-88
2023/08/26 15:14:29;;;;;;;4.55;3.47;;;28.00;76.70;;;;;;4693909;29;20233;-84
2023/08/26 15:40:08;;;;;;;4.95;3.90;;;27.20;84.90;;;;;;4702812;29;20300;-81
2023/08/26 16:10:04;;;;;;;5.00;4.20;;;26.50;90.10;;;;;;4566339;30;20850;-85
2023/08/26 16:30:38;;;;;;;4.95;4.45;;;26.50;94.80;;;;;;4565279;30;20641;-85
2023/08/26 16:55:45;;;;;;;4.55;4.03;;;26.60;89.50;;;;;;4633427;30;20523;-85
2023/08/26 17:21:42;;;;;;;5.97;5.38;;;26.30;88.80;;;;;;4750966;29;20297;-85
2023/08/26 17:52:08;;;;;;;5.90;5.22;;;25.70;90.30;;;;;;4865746;28;20990;-85
2023/08/26 18:12:32;;;;;;;5.82;5.22;;;24.10;99.90;;;;;;4725258;29;20656;-87
2023/08/26 18:32:19;;;;;;;6.25;5.43;;;23.30;99.90;;;;;;4718879;29;20905;-84
2023/08/26 18:53:00;;;;;;;7.35;6.40;;;22.70;99.90;;;;;;4611288;30;20218;-84
2023/08/26 20:29:26;;;;;;;10.05;9.15;;;20.80;99.90;;;;;;4582400;30;20253;-89
2023/08/26 20:59:48;;;;;;;12.02;10.50;;;20.80;99.90;;;;;;4646414;30;20229;-84
2023/08/26 21:24:59;;;;;;;12.13;10.80;;;20.60;99.90;;;;;;4657437;29;20362;-83
2023/08/26 21:45:16;;;;;;;14.18;10.80;;;20.20;99.90;;;;;;4710034;29;20206;-86
2023/08/26 22:10:50;;;;;;;14.25;12.50;;;20.20;99.90;;;;;;4774714;29;20275;-85
2023/08/26 22:41:01;;;;;;;13.60;12.20;;;19.70;99.90;;;;;;4678846;29;20198;-85
2023/08/26 23:05:58;;;;;;;15.47;13.97;;;19.60;99.90;;;;;;4722633;29;20345;-83
2023/08/26 23:21:36;;;;;;;17.17;15.03;;;19.80;99.90;;;;;;4712322;29;20217;-85
2023/08/26 23:42:12;;;;;;;16.27;14.67;;;20.20;99.90;;;;;;4684279;30;20624;-85
